createdAt,value
2023-03-11T00:00:13.492Z,99999.59
2023-03-11T00:00:38.158Z,99983.09
2023-03-11T00:00:59.918Z,99998.66
2023-03-11T00:01:23.151Z,99989.13
2023-03-11T00:01:44.742Z,99999.53
2023-03-11T00:02:06.345Z,99981.22
2023-03-11T00:02:28.075Z,100013.38
2023-03-11T00:02:53.285Z,99996.81
2023-03-11T00:03:17.772Z,100007.44
2023-03-11T00:03:39.796Z,100003.06
2023-03-11T00:04:01.684Z,99992.75
2023-03-11T00:04:23.286Z,100003.28
2023-03-11T00:04:45.991Z,100006.75
2023-03-11T00:05:08.817Z,99998.81
2023-03-11T00:05:32.708Z,100013.66
2023-03-11T00:05:55.928Z,100006.66
2023-03-11T00:06:18.598Z,100006.56
2023-03-11T00:06:40.188Z,100001.53
2023-03-11T00:07:01.958Z,100004.25
2023-03-11T00:07:23.616Z,100001.63
2023-03-11T00:07:45.309Z,100011.16
2023-03-11T00:08:09.877Z,99996.47
2023-03-11T00:08:31.556Z,99995.63
2023-03-11T00:08:53.268Z,100010.25
2023-03-11T00:09:15.203Z,100016.31
2023-03-11T00:09:37.958Z,100005.91
2023-03-11T00:09:59.884Z,100011.16
2023-03-11T00:10:24.721Z,100013.78
2023-03-11T00:10:48.256Z,100018.97
2023-03-11T00:11:10.909Z,100019.81
2023-03-11T00:11:32.686Z,100023.19
2023-03-11T00:11:54.246Z,100019.63
2023-03-11T00:12:15.803Z,100003.84
2023-03-11T00:12:37.406Z,100015.09
2023-03-11T00:13:00.347Z,100026.44
2023-03-11T00:13:22.671Z,100012.47
2023-03-11T00:13:44.362Z,100027.16
2023-03-11T00:14:05.956Z,100026.44
2023-03-11T00:14:27.634Z,100027.97
2023-03-11T00:14:51.648Z,100019.97
2023-03-11T00:15:14.339Z,100027.84
2023-03-11T00:15:37.176Z,100030.47
2023-03-11T00:16:01.778Z,100023.34
2023-03-11T00:16:23.476Z,100015.38
2023-03-11T00:16:45.337Z,100035.56
2023-03-11T00:17:07.010Z,100028.53
2023-03-11T00:17:29.006Z,100018.81
2023-03-11T00:17:51.862Z,100023.25
2023-03-11T00:18:13.623Z,100026.88
2023-03-11T00:18:35.338Z,100024.31
2023-03-11T00:18:58.050Z,100016.59
2023-03-11T00:19:19.744Z,100019.16
2023-03-11T00:19:41.782Z,100026.31
2023-03-11T00:20:04.078Z,100017.53
2023-03-11T00:20:29.309Z,100020.16
2023-03-11T00:20:51.044Z,100021.03
2023-03-11T00:21:16.133Z,100027.13
2023-03-11T00:21:37.889Z,100032.31
2023-03-11T00:22:00.435Z,100028.81
2023-03-11T00:22:22.335Z,100026.13
2023-03-11T00:22:44.017Z,100028.72
2023-03-11T00:23:07.313Z,100026.00
2023-03-11T00:23:30.392Z,100027.72
2023-03-11T00:23:52.113Z,100032.25
2023-03-11T00:24:14.106Z,99982.97
2023-03-11T00:24:35.760Z,99983.78
2023-03-11T00:24:57.503Z,100029.81
2023-03-11T00:25:21.780Z,100033.19
2023-03-11T00:25:45.447Z,100021.94
2023-03-11T00:26:07.120Z,100014.81
2023-03-11T00:26:29.759Z,100034.88
2023-03-11T00:26:51.349Z,100027.19
2023-03-11T00:27:12.952Z,100040.34
2023-03-11T00:27:34.577Z,100038.59
2023-03-11T00:27:56.673Z,100034.13
2023-03-11T00:28:20.833Z,100035.84
2023-03-11T00:28:42.541Z,99998.78
2023-03-11T00:29:04.463Z,100041.22
2023-03-11T00:29:26.103Z,100036.00
2023-03-11T00:29:48.669Z,100041.22
2023-03-11T00:30:14.975Z,100042.88
2023-03-11T00:30:37.587Z,100052.44
2023-03-11T00:30:59.401Z,100045.53
2023-03-11T00:31:26.413Z,100032.31
2023-03-11T00:31:48.714Z,100049.72
2023-03-11T00:32:10.330Z,100045.50
2023-03-11T00:32:32.109Z,100049.59
2023-03-11T00:32:57.246Z,100044.31
2023-03-11T00:33:19.866Z,100044.31
2023-03-11T00:33:41.457Z,100033.88
2023-03-11T00:34:03.212Z,100042.69
2023-03-11T00:34:25.703Z,100049.75
2023-03-11T00:34:50.585Z,100046.38
2023-03-11T00:35:15.870Z,100042.88
2023-03-11T00:35:37.572Z,100035.22
2023-03-11T00:36:00.321Z,100050.88
2023-03-11T00:36:24.496Z,100032.47
2023-03-11T00:36:46.137Z,100039.59
2023-03-11T00:37:08.201Z,100036.94
2023-03-11T00:37:30.423Z,100041.19
2023-03-11T00:37:56.028Z,100048.16
2023-03-11T00:38:18.486Z,100050.13
2023-03-11T00:38:40.179Z,100052.75
2023-03-11T00:39:06.436Z,100025.84
2023-03-11T00:39:28.209Z,100048.34
2023-03-11T00:39:49.949Z,100052.66
2023-03-11T00:40:13.264Z,100050.03
2023-03-11T00:40:37.144Z,100061.44
2023-03-11T00:41:01.647Z,100060.53
2023-03-11T00:41:26.340Z,100056.28
2023-03-11T00:41:48.892Z,100058.97
2023-03-11T00:42:10.616Z,100056.28
2023-03-11T00:42:34.088Z,100049.53
2023-03-11T00:42:56.239Z,100043.31
2023-03-11T00:43:19.219Z,100065.03
2023-03-11T00:43:40.824Z,100055.31
2023-03-11T00:44:03.055Z,100057.03
2023-03-11T00:44:25.258Z,100057.84
2023-03-11T00:44:46.970Z,100057.78
2023-03-11T00:45:09.871Z,100061.28
2023-03-11T00:45:33.762Z,100063.94
2023-03-11T00:45:56.502Z,100062.16
2023-03-11T00:46:18.435Z,100054.38
2023-03-11T00:46:41.108Z,100065.72
2023-03-11T00:47:02.746Z,100058.72
2023-03-11T00:47:24.370Z,100065.81
2023-03-11T00:47:46.975Z,100054.44
2023-03-11T00:48:09.169Z,100054.38
2023-03-11T00:48:30.814Z,100063.09
2023-03-11T00:48:54.240Z,100056.19
2023-03-11T00:49:15.825Z,100052.75
2023-03-11T00:49:37.514Z,100056.22
2023-03-11T00:49:59.268Z,100051.97
2023-03-11T00:50:25.185Z,100058.91
2023-03-11T00:50:46.798Z,100061.72
2023-03-11T00:51:13.535Z,100064.56
2023-03-11T00:51:36.132Z,100064.44
2023-03-11T00:51:57.715Z,100062.63
2023-03-11T00:52:19.361Z,100064.50
2023-03-11T00:52:40.995Z,100066.22
2023-03-11T00:53:04.978Z,100060.88
2023-03-11T00:53:26.719Z,100067.06
2023-03-11T00:53:48.480Z,100067.03
2023-03-11T00:54:10.135Z,100069.66
2023-03-11T00:54:31.910Z,100054.84
2023-03-11T00:54:54.455Z,100071.28
2023-03-11T00:55:18.717Z,100066.81
2023-03-11T00:55:40.495Z,100074.69
2023-03-11T00:56:09.144Z,100066.81
2023-03-11T00:56:31.011Z,100068.53
2023-03-11T00:56:52.711Z,100071.19
2023-03-11T00:57:15.343Z,100069.50
2023-03-11T00:57:39.974Z,100069.44
2023-03-11T00:58:04.185Z,100072.06
2023-03-11T00:58:35.690Z,100071.25
2023-03-11T00:58:57.942Z,100079.94
2023-03-11T00:59:19.753Z,100071.25
2023-03-11T00:59:41.857Z,100077.28
2023-03-11T01:00:04.625Z,100079.84
2023-03-11T01:00:29.060Z,100080.75
2023-03-11T01:00:52.069Z,100080.75
2023-03-11T01:01:16.016Z,100080.75
2023-03-11T01:01:37.645Z,100081.63
2023-03-11T01:01:59.341Z,100079.84
2023-03-11T01:02:23.127Z,100065.03
2023-03-11T01:02:45.043Z,100083.38
2023-03-11T01:03:06.987Z,100082.47
2023-03-11T01:03:28.600Z,100088.63
2023-03-11T01:03:51.159Z,100086.84
2023-03-11T01:04:12.756Z,100083.34
2023-03-11T01:04:34.494Z,100087.72
2023-03-11T01:04:56.129Z,100092.03
2023-03-11T01:05:20.391Z,100092.91
2023-03-11T01:05:42.931Z,100079.72
2023-03-11T01:06:05.481Z,100091.94
2023-03-11T01:06:32.759Z,100085.00
2023-03-11T01:07:01.993Z,100085.78
2023-03-11T01:07:23.641Z,100087.47
2023-03-11T01:07:45.251Z,100084.22
2023-03-11T01:08:06.998Z,100083.50
2023-03-11T01:08:29.469Z,100092.13
2023-03-11T01:08:52.141Z,100088.50
2023-03-11T01:09:13.783Z,100079.66
2023-03-11T01:09:35.350Z,100076.25
2023-03-11T01:09:57.087Z,100091.91
2023-03-11T01:10:19.306Z,100089.19
2023-03-11T01:10:41.882Z,100095.22
2023-03-11T01:11:04.910Z,100081.28
2023-03-11T01:11:27.229Z,100057.16
2023-03-11T01:11:48.881Z,100077.97
2023-03-11T01:12:10.507Z,100093.56
2023-03-11T01:12:32.225Z,100084.78
2023-03-11T01:12:54.967Z,100082.97
2023-03-11T01:13:16.610Z,100086.38
2023-03-11T01:13:40.098Z,100074.31
2023-03-11T01:14:01.825Z,100089.84
2023-03-11T01:14:23.534Z,100095.03
2023-03-11T01:14:46.180Z,100099.41
2023-03-11T01:15:09.428Z,100091.47
2023-03-11T01:15:33.674Z,100095.00
2023-03-11T01:15:58.270Z,100088.94
2023-03-11T01:16:21.590Z,100068.00
2023-03-11T01:16:44.353Z,100091.47
2023-03-11T01:17:05.978Z,100089.72
2023-03-11T01:17:28.625Z,100089.72
2023-03-11T01:17:50.293Z,100079.22
2023-03-11T01:18:20.346Z,100091.38
2023-03-11T01:18:42.998Z,100089.59
2023-03-11T01:19:04.701Z,100092.16
2023-03-11T01:19:26.325Z,100092.16
2023-03-11T01:19:49.246Z,100091.25
2023-03-11T01:20:12.439Z,100095.69
2023-03-11T01:20:35.410Z,100092.22
2023-03-11T01:20:57.179Z,100088.97
2023-03-11T01:21:18.829Z,100095.03
2023-03-11T01:21:40.507Z,100088.97
2023-03-11T01:22:02.267Z,100095.13
2023-03-11T01:22:25.122Z,100093.34
2023-03-11T01:22:46.802Z,100087.13
2023-03-11T01:23:09.069Z,100091.50
2023-03-11T01:23:32.482Z,100087.09
2023-03-11T01:23:54.115Z,100085.34
2023-03-11T01:24:15.686Z,100085.31
2023-03-11T01:24:37.294Z,100091.38
2023-03-11T01:24:59.437Z,100088.75
2023-03-11T01:25:24.133Z,100093.25
2023-03-11T01:25:46.377Z,100092.38
2023-03-11T01:26:08.057Z,100092.38
2023-03-11T01:26:29.655Z,100094.13
2023-03-11T01:26:51.364Z,100093.16
2023-03-11T01:27:14.094Z,100094.03
2023-03-11T01:27:35.915Z,100083.69
2023-03-11T01:27:57.623Z,100094.88
2023-03-11T01:28:19.257Z,100099.19
2023-03-11T01:28:41.872Z,100098.28
2023-03-11T01:29:03.831Z,100103.47
2023-03-11T01:29:25.542Z,100099.97
2023-03-11T01:29:47.146Z,100091.19
2023-03-11T01:30:13.796Z,100113.13
2023-03-11T01:30:38.013Z,100097.22
2023-03-11T01:31:00.997Z,100099.06
2023-03-11T01:31:22.937Z,100105.13
2023-03-11T01:31:44.672Z,100101.59
2023-03-11T01:32:08.182Z,100105.09
2023-03-11T01:32:31.365Z,100099.84
2023-03-11T01:32:54.043Z,100108.72
2023-03-11T01:33:19.044Z,100107.84
2023-03-11T01:33:40.653Z,100112.22
2023-03-11T01:34:02.352Z,100107.84
2023-03-11T01:34:24.190Z,100107.84
2023-03-11T01:34:45.837Z,100108.94
2023-03-11T01:35:10.742Z,100109.72
2023-03-11T01:35:32.850Z,100110.47
2023-03-11T01:35:54.686Z,100104.31
2023-03-11T01:36:16.579Z,100112.13
2023-03-11T01:36:39.301Z,100119.09
2023-03-11T01:37:01.472Z,100108.53
2023-03-11T01:37:23.128Z,100113.81
2023-03-11T01:37:44.826Z,100110.34
2023-03-11T01:38:07.499Z,100115.63
2023-03-11T01:38:29.274Z,100110.31
2023-03-11T01:38:50.949Z,100112.97
2023-03-11T01:39:12.718Z,100116.50
2023-03-11T01:39:35.136Z,100105.97
2023-03-11T01:39:57.741Z,100116.47
2023-03-11T01:40:24.317Z,100116.50
2023-03-11T01:40:48.054Z,100117.41
2023-03-11T01:41:13.076Z,100119.13
2023-03-11T01:41:34.810Z,100117.41
2023-03-11T01:41:57.307Z,100111.25
2023-03-11T01:42:19.154Z,100112.16
2023-03-11T01:42:40.999Z,100109.56
2023-03-11T01:43:05.577Z,100120.84
2023-03-11T01:43:46.244Z,100125.22
2023-03-11T01:44:11.648Z,100114.59
2023-03-11T01:44:33.514Z,100115.56
2023-03-11T01:44:56.894Z,100119.09
2023-03-11T01:45:41.490Z,100118.19
2023-03-11T01:46:13.437Z,100113.72
2023-03-11T01:47:01.996Z,100122.47
2023-03-11T01:47:38.657Z,100118.00
2023-03-11T01:48:02.052Z,100116.25
2023-03-11T01:48:24.067Z,100125.13
2023-03-11T01:48:48.708Z,100119.84
2023-03-11T01:49:12.919Z,100117.28
2023-03-11T01:49:35.621Z,100122.50
2023-03-11T01:49:57.346Z,100118.19
2023-03-11T01:50:19.050Z,100118.16
2023-03-11T01:50:43.659Z,100111.16
2023-03-11T01:51:07.859Z,100114.69
2023-03-11T01:51:33.405Z,100121.63
2023-03-11T01:52:00.319Z,100112.03
2023-03-11T01:52:22.348Z,100115.47
2023-03-11T01:52:46.884Z,100112.03
2023-03-11T01:53:09.829Z,100116.44
2023-03-11T01:53:32.558Z,100112.91
2023-03-11T01:53:57.154Z,100109.44
2023-03-11T01:54:24.072Z,100117.28
2023-03-11T01:54:46.084Z,100120.88
2023-03-11T01:55:08.837Z,100110.34
2023-03-11T01:55:32.061Z,100116.53
2023-03-11T01:55:55.637Z,100108.72
2023-03-11T01:56:17.752Z,100114.88
2023-03-11T01:56:41.205Z,100109.81
2023-03-11T01:57:06.497Z,100113.19
2023-03-11T01:57:28.457Z,100116.78
2023-03-11T01:57:52.848Z,100121.09
2023-03-11T01:58:17.656Z,100115.84
2023-03-11T01:58:44.919Z,100114.88
2023-03-11T01:59:09.407Z,100106.97
2023-03-11T01:59:37.174Z,100114.13
2023-03-11T02:00:04.917Z,100110.50
2023-03-11T02:00:35.907Z,100111.34
2023-03-11T02:01:00.794Z,100115.69
2023-03-11T02:01:24.529Z,100119.25
2023-03-11T02:01:53.604Z,100089.66
2023-03-11T02:02:20.960Z,100113.91
2023-03-11T02:02:47.422Z,100111.25
2023-03-11T02:03:14.748Z,100116.53
2023-03-11T02:03:39.327Z,100114.88
2023-03-11T02:04:04.525Z,100120.19
2023-03-11T02:04:28.552Z,100125.44
2023-03-11T02:04:51.380Z,100114.88
2023-03-11T02:05:13.254Z,100114.00
2023-03-11T02:05:36.258Z,100114.00
2023-03-11T02:06:01.155Z,100124.44
2023-03-11T02:06:24.497Z,100121.00
2023-03-11T02:06:46.714Z,100117.50
2023-03-11T02:07:11.186Z,100117.47
2023-03-11T02:07:33.157Z,100116.66
2023-03-11T02:07:56.011Z,100118.28
2023-03-11T02:08:22.448Z,100117.47
2023-03-11T02:08:46.120Z,100118.25
2023-03-11T02:09:08.858Z,100121.75
2023-03-11T02:09:30.777Z,100121.72
2023-03-11T02:09:53.638Z,100119.09
2023-03-11T02:10:15.617Z,100117.34
2023-03-11T02:10:38.799Z,100119.97
2023-03-11T02:11:02.207Z,100121.69
2023-03-11T02:11:28.529Z,100119.94
2023-03-11T02:11:50.667Z,100119.84
2023-03-11T02:12:14.736Z,100117.22
2023-03-11T02:12:37.838Z,100120.91
2023-03-11T02:13:01.454Z,100119.88
2023-03-11T02:13:24.545Z,100120.84
2023-03-11T02:13:47.113Z,100123.47
2023-03-11T02:14:09.440Z,100128.72
2023-03-11T02:14:32.953Z,100130.47
2023-03-11T02:14:54.586Z,100124.34
2023-03-11T02:15:16.898Z,100121.72
2023-03-11T02:15:40.020Z,100124.28
2023-03-11T02:16:03.267Z,100119.06
2023-03-11T02:16:26.473Z,100123.38
2023-03-11T02:16:48.160Z,100089.50
2023-03-11T02:17:10.148Z,100130.38
2023-03-11T02:17:33.693Z,100118.19
2023-03-11T02:17:56.415Z,100120.88
2023-03-11T02:18:20.314Z,100124.50
2023-03-11T02:18:43.285Z,100127.06
2023-03-11T02:19:15.822Z,100132.31
2023-03-11T02:19:48.313Z,100127.88
2023-03-11T02:20:22.569Z,100133.91
2023-03-11T02:20:50.139Z,100132.31
2023-03-11T02:21:21.173Z,100135.09
2023-03-11T02:21:43.694Z,100129.81
2023-03-11T02:22:05.801Z,100131.53
2023-03-11T02:22:29.911Z,100135.00
2023-03-11T02:22:57.141Z,100127.94
2023-03-11T02:23:24.327Z,100129.63
2023-03-11T02:23:55.468Z,100133.97
2023-03-11T02:24:23.505Z,100131.38
2023-03-11T02:24:50.340Z,100126.13
2023-03-11T02:25:21.508Z,100128.53
2023-03-11T02:25:52.312Z,100125.13
2023-03-11T02:26:19.932Z,100134.81
2023-03-11T02:26:51.424Z,100125.22
2023-03-11T02:27:17.685Z,100112.19
2023-03-11T02:27:45.424Z,100126.00
2023-03-11T02:28:10.161Z,100110.28
2023-03-11T02:28:34.803Z,100114.66
2023-03-11T02:28:58.296Z,100128.53
2023-03-11T02:29:22.782Z,100125.00
2023-03-11T02:29:48.046Z,100127.66
2023-03-11T02:30:14.030Z,100128.81
2023-03-11T02:30:40.611Z,100102.66
2023-03-11T02:31:02.376Z,100118.97
2023-03-11T02:31:25.381Z,100105.03
2023-03-11T02:31:50.502Z,100123.25
2023-03-11T02:32:14.543Z,100123.28
2023-03-11T02:32:39.195Z,100117.19
2023-03-11T02:33:02.161Z,100125.03
2023-03-11T02:33:28.186Z,100121.56
2023-03-11T02:33:54.405Z,100125.09
2023-03-11T02:34:23.504Z,100121.63
2023-03-11T02:34:45.424Z,100127.66
2023-03-11T02:35:09.336Z,100125.91
2023-03-11T02:35:32.084Z,100113.72
2023-03-11T02:35:55.096Z,100131.25
2023-03-11T02:36:36.194Z,100126.88
2023-03-11T02:36:59.535Z,100127.78
2023-03-11T02:37:21.336Z,100130.41
2023-03-11T02:37:52.826Z,100131.34
2023-03-11T02:38:15.231Z,100126.19
2023-03-11T02:38:37.742Z,100119.09
2023-03-11T02:38:59.597Z,100127.88
2023-03-11T02:39:30.934Z,100134.91
2023-03-11T02:39:54.721Z,100133.09
2023-03-11T02:40:48.794Z,100136.66
2023-03-11T02:41:14.022Z,100131.25
2023-03-11T02:41:40.099Z,100128.81
2023-03-11T02:42:07.126Z,100127.00
2023-03-11T02:42:33.289Z,100133.16
2023-03-11T02:42:57.369Z,100127.88
2023-03-11T02:43:23.669Z,100138.38
2023-03-11T02:43:46.784Z,100142.78
2023-03-11T02:44:17.124Z,100129.72
2023-03-11T02:44:42.400Z,100135.84
2023-03-11T02:45:09.277Z,100133.16
2023-03-11T02:45:32.838Z,100135.84
2023-03-11T02:45:57.456Z,100138.44
2023-03-11T02:46:19.756Z,100136.69
2023-03-11T02:46:43.539Z,100132.44
2023-03-11T02:47:07.114Z,100138.44
2023-03-11T02:47:30.158Z,100135.94
2023-03-11T02:47:52.890Z,100145.44
2023-03-11T02:48:16.544Z,100143.69
2023-03-11T02:48:39.122Z,100138.44
2023-03-11T02:49:02.504Z,100140.09
2023-03-11T02:49:24.727Z,100126.28
2023-03-11T02:49:46.382Z,100142.72
2023-03-11T02:50:11.251Z,100142.78
2023-03-11T02:50:34.411Z,100146.28
2023-03-11T02:50:57.924Z,100143.69
2023-03-11T02:51:20.042Z,100149.84
2023-03-11T02:51:45.254Z,100148.97
2023-03-11T02:52:07.539Z,100144.56
2023-03-11T02:52:30.569Z,100149.03
2023-03-11T02:52:52.514Z,100143.69
2023-03-11T02:53:14.803Z,100130.66
2023-03-11T02:53:41.492Z,100122.13
2023-03-11T02:54:05.087Z,100141.19
2023-03-11T02:54:28.865Z,100147.34
2023-03-11T02:54:52.377Z,100147.28
2023-03-11T02:55:16.023Z,100149.97
2023-03-11T02:55:37.835Z,100150.00
2023-03-11T02:56:02.465Z,100146.47
2023-03-11T02:56:24.441Z,100156.16
2023-03-11T02:56:46.163Z,100153.59
2023-03-11T02:57:09.104Z,100149.22
2023-03-11T02:57:31.049Z,100144.06
2023-03-11T02:57:53.709Z,100153.66
2023-03-11T02:58:15.318Z,100152.81
2023-03-11T02:58:36.963Z,100154.53
2023-03-11T02:58:58.722Z,100159.75
2023-03-11T02:59:21.474Z,100152.81
2023-03-11T02:59:43.495Z,100158.88
2023-03-11T03:00:11.011Z,100155.38
2023-03-11T03:00:34.151Z,100153.59
2023-03-11T03:01:01.032Z,100155.34
2023-03-11T03:01:23.285Z,100152.66
2023-03-11T03:01:45.564Z,100154.41
2023-03-11T03:02:07.202Z,100159.69
2023-03-11T03:02:29.017Z,100153.53
2023-03-11T03:02:52.244Z,100148.38
2023-03-11T03:03:14.209Z,100149.22
2023-03-11T03:03:35.869Z,100155.34
2023-03-11T03:03:58.899Z,100155.28
2023-03-11T03:04:21.051Z,100155.31
2023-03-11T03:04:42.737Z,100150.19
2023-03-11T03:05:05.888Z,100150.00
2023-03-11T03:05:28.678Z,100155.28
2023-03-11T03:05:52.078Z,100150.97
2023-03-11T03:06:13.877Z,100151.84
2023-03-11T03:06:35.594Z,100143.00
2023-03-11T03:06:57.225Z,100150.00
2023-03-11T03:07:19.926Z,100154.41
2023-03-11T03:07:41.545Z,100153.53
2023-03-11T03:08:03.427Z,100157.13
2023-03-11T03:08:24.968Z,100157.13
2023-03-11T03:08:47.559Z,100155.38
2023-03-11T03:09:09.267Z,100158.00
2023-03-11T03:09:31.415Z,100155.50
2023-03-11T03:09:53.076Z,100152.06
2023-03-11T03:10:16.481Z,100154.63
2023-03-11T03:10:39.060Z,100153.72
2023-03-11T03:11:01.123Z,100143.53
2023-03-11T03:11:22.937Z,100146.00
2023-03-11T03:11:44.547Z,100150.31
2023-03-11T03:12:07.006Z,100144.16
2023-03-11T03:12:32.261Z,100155.41
2023-03-11T03:12:53.952Z,100148.34
2023-03-11T03:13:15.636Z,100148.31
2023-03-11T03:13:37.467Z,100152.66
2023-03-11T03:14:00.124Z,100150.00
2023-03-11T03:14:21.939Z,100157.03
2023-03-11T03:14:43.972Z,100143.84
2023-03-11T03:15:07.071Z,100155.25
2023-03-11T03:15:30.318Z,100150.84
2023-03-11T03:15:52.347Z,100144.72
2023-03-11T03:16:14.020Z,100149.94
2023-03-11T03:16:35.792Z,100152.63
2023-03-11T03:16:58.843Z,100149.97
2023-03-11T03:17:20.606Z,100149.13
2023-03-11T03:17:42.709Z,100156.16
2023-03-11T03:18:04.740Z,100147.34
2023-03-11T03:18:27.675Z,100153.50
2023-03-11T03:18:49.685Z,100141.31
2023-03-11T03:19:11.322Z,100137.84
2023-03-11T03:19:32.990Z,100153.66
2023-03-11T03:19:55.673Z,100157.16
2023-03-11T03:20:18.096Z,100148.31
2023-03-11T03:20:44.045Z,100127.56
2023-03-11T03:21:06.832Z,100148.38
2023-03-11T03:21:28.552Z,100151.94
2023-03-11T03:21:50.967Z,100149.31
2023-03-11T03:22:12.713Z,100147.56
2023-03-11T03:22:34.867Z,100159.88
2023-03-11T03:22:57.634Z,100148.53
2023-03-11T03:23:23.193Z,100151.09
2023-03-11T03:23:44.983Z,100152.88
2023-03-11T03:24:07.196Z,100154.69
2023-03-11T03:24:30.992Z,100156.44
2023-03-11T03:24:52.904Z,100159.94
2023-03-11T03:25:14.875Z,100137.38
2023-03-11T03:25:36.519Z,100157.31
2023-03-11T03:26:03.069Z,100147.69
2023-03-11T03:26:24.890Z,100150.44
2023-03-11T03:26:46.603Z,100159.19
2023-03-11T03:27:08.212Z,100155.63
2023-03-11T03:27:32.900Z,100155.59
2023-03-11T03:27:55.108Z,100153.91
2023-03-11T03:28:17.341Z,100152.97
2023-03-11T03:28:40.778Z,100162.59
2023-03-11T03:29:04.642Z,100156.41
2023-03-11T03:29:26.467Z,100129.47
2023-03-11T03:29:48.851Z,100157.25
2023-03-11T03:30:11.962Z,100155.47
2023-03-11T03:30:35.181Z,100159.88
2023-03-11T03:31:03.169Z,100161.63
2023-03-11T03:31:25.158Z,100153.75
2023-03-11T03:31:47.873Z,100159.88
2023-03-11T03:32:09.787Z,100161.56
2023-03-11T03:32:31.595Z,100161.53
2023-03-11T03:32:53.445Z,100166.75
2023-03-11T03:33:16.653Z,100158.88
2023-03-11T03:33:38.858Z,100160.56
2023-03-11T03:34:02.182Z,100159.75
2023-03-11T03:34:25.054Z,100163.28
2023-03-11T03:34:47.063Z,100156.38
2023-03-11T03:35:09.636Z,100162.50
2023-03-11T03:35:49.617Z,100164.28
2023-03-11T03:36:16.883Z,100162.59
2023-03-11T03:36:43.095Z,100164.25
2023-03-11T03:37:05.422Z,100173.06
2023-03-11T03:37:28.892Z,100166.03
2023-03-11T03:37:50.499Z,100153.91
2023-03-11T03:38:14.283Z,100163.53
2023-03-11T03:38:37.574Z,100154.84
2023-03-11T03:38:59.725Z,100177.53
2023-03-11T03:39:25.842Z,100173.28
2023-03-11T03:39:47.731Z,100154.16
2023-03-11T03:40:11.614Z,100161.00
2023-03-11T03:40:35.768Z,100176.88
2023-03-11T03:40:59.699Z,100167.31
2023-03-11T03:41:21.486Z,100174.34
2023-03-11T03:41:43.180Z,100171.78
2023-03-11T03:42:05.663Z,100171.00
2023-03-11T03:42:32.403Z,100172.69
2023-03-11T03:42:54.154Z,100177.09
2023-03-11T03:43:16.204Z,100172.69
2023-03-11T03:43:40.842Z,100174.47
2023-03-11T03:44:03.289Z,100159.69
2023-03-11T03:44:25.650Z,100171.81
2023-03-11T03:44:47.449Z,100175.38
2023-03-11T03:45:10.585Z,100177.97
2023-03-11T03:45:33.346Z,100170.91
2023-03-11T03:45:56.439Z,100170.91
2023-03-11T03:46:19.538Z,100177.88
2023-03-11T03:46:43.535Z,100165.75
2023-03-11T03:47:07.413Z,100183.13
2023-03-11T03:47:29.273Z,100182.22
2023-03-11T03:47:51.063Z,100172.59
2023-03-11T03:48:13.993Z,100181.34
2023-03-11T03:48:40.051Z,100180.41
2023-03-11T03:49:02.945Z,100190.06
2023-03-11T03:49:25.612Z,100166.53
2023-03-11T03:49:47.734Z,100172.50
2023-03-11T03:50:12.350Z,100183.91
2023-03-11T03:50:36.826Z,100177.84
2023-03-11T03:51:03.475Z,100180.47
2023-03-11T03:51:25.296Z,100183.13
2023-03-11T03:51:58.184Z,100184.88
2023-03-11T03:52:24.581Z,100180.50
2023-03-11T03:52:46.703Z,100182.31
2023-03-11T03:53:08.359Z,100182.31
2023-03-11T03:53:31.267Z,100184.06
2023-03-11T03:53:53.189Z,100184.91
2023-03-11T03:54:15.268Z,100184.91
2023-03-11T03:54:37.885Z,100175.41
2023-03-11T03:55:01.275Z,100182.28
2023-03-11T03:55:22.896Z,100184.91
2023-03-11T03:55:44.577Z,100181.38
2023-03-11T03:56:08.195Z,100182.34
2023-03-11T03:56:31.681Z,100188.47
2023-03-11T03:56:53.992Z,100174.47
2023-03-11T03:57:16.191Z,100190.25
2023-03-11T03:57:42.230Z,100193.75
2023-03-11T03:58:07.547Z,100179.72
2023-03-11T03:58:31.034Z,100183.38
2023-03-11T03:58:53.368Z,100193.81
2023-03-11T03:59:16.302Z,100197.25
2023-03-11T03:59:44.997Z,100199.91
2023-03-11T04:00:09.195Z,100192.91
2023-03-11T04:00:35.831Z,100200.78
2023-03-11T04:00:58.677Z,100197.34
2023-03-11T04:01:22.472Z,100203.44
2023-03-11T04:01:44.156Z,100205.25
2023-03-11T04:02:05.983Z,100196.50
2023-03-11T04:02:27.691Z,100204.44
2023-03-11T04:02:51.479Z,100200.19
2023-03-11T04:03:21.007Z,100201.09
2023-03-11T04:03:48.455Z,100199.31
2023-03-11T04:04:10.866Z,100204.66
2023-03-11T04:04:33.641Z,100196.75
2023-03-11T04:04:55.898Z,100199.28
2023-03-11T04:05:18.062Z,100202.81
2023-03-11T04:05:40.348Z,100193.28
2023-03-11T04:06:09.347Z,100199.31
2023-03-11T04:06:31.957Z,100203.69
2023-03-11T04:06:57.860Z,100203.69
2023-03-11T04:07:19.678Z,100199.31
2023-03-11T04:07:41.326Z,100198.44
2023-03-11T04:08:04.470Z,100201.94
2023-03-11T04:08:26.248Z,100204.56
2023-03-11T04:08:48.075Z,100204.56
2023-03-11T04:09:11.800Z,100203.69
2023-03-11T04:09:34.520Z,100202.88
2023-03-11T04:09:57.289Z,100208.16
2023-03-11T04:10:19.197Z,100205.50
2023-03-11T04:10:41.050Z,100194.13
2023-03-11T04:11:03.630Z,100202.91
2023-03-11T04:11:28.532Z,100199.41
2023-03-11T04:11:50.422Z,100199.47
2023-03-11T04:12:14.730Z,100196.00
2023-03-11T04:12:37.387Z,100201.25
2023-03-11T04:13:01.359Z,100209.16
2023-03-11T04:13:23.877Z,100208.28
2023-03-11T04:13:45.522Z,100210.03
2023-03-11T04:14:08.330Z,100200.38
2023-03-11T04:14:36.733Z,100205.69
2023-03-11T04:14:58.377Z,100207.44
2023-03-11T04:15:20.211Z,100210.03
2023-03-11T04:15:42.481Z,100208.28
2023-03-11T04:16:06.593Z,100206.56
2023-03-11T04:16:28.788Z,100215.28
2023-03-11T04:16:56.192Z,100210.91
2023-03-11T04:17:17.853Z,100213.53
2023-03-11T04:17:41.272Z,100197.22
2023-03-11T04:18:02.890Z,100211.06
2023-03-11T04:18:24.704Z,100218.00
2023-03-11T04:18:47.108Z,100211.94
2023-03-11T04:19:09.927Z,100214.56
2023-03-11T04:19:33.362Z,100218.91
2023-03-11T04:19:55.074Z,100218.88
2023-03-11T04:20:17.054Z,100218.00
2023-03-11T04:20:41.447Z,100218.81
2023-03-11T04:21:06.826Z,100213.69
2023-03-11T04:21:28.764Z,100195.38
2023-03-11T04:21:51.915Z,100220.66
2023-03-11T04:22:14.857Z,100223.25
2023-03-11T04:22:37.505Z,100225.91
2023-03-11T04:23:00.969Z,100211.06
2023-03-11T04:23:22.757Z,100224.22
2023-03-11T04:23:44.408Z,100220.72
2023-03-11T04:24:09.895Z,100220.66
2023-03-11T04:24:33.421Z,100222.38
2023-03-11T04:24:55.136Z,100222.41
2023-03-11T04:25:17.869Z,100224.16
2023-03-11T04:25:39.926Z,100224.13
2023-03-11T04:26:01.698Z,100227.72
2023-03-11T04:26:23.530Z,100222.41
2023-03-11T04:26:46.247Z,100223.25
2023-03-11T04:27:10.985Z,100218.88
2023-03-11T04:27:34.131Z,100225.03
2023-03-11T04:27:57.851Z,100224.22